North Little Rock, AR (72199)

7:45 PM CST on December 26, 2014 (GMT -0600)
Indian Hills | Change Station
CLOSE
Current Station
Personal Weather Station
Location: North Little Rock, AR
Elevation: 488 ft
Nearby Weather Stations

Elev 488 ft 34.82 °N, 92.25 °W | Updated 10 minutes ago

Overcast
Overcast
51.3 °F
Feels Like 51.3 °F
N
2.0
Wind Variable Wind from East
Gusts 6.0 mph

Today
High -- | Low -- °F
--% Chance of Precip.
Yesterday
High -- | Low -- °F
Precip. -- in
7:14 AM 5:04 PM
Waxing Crescent, 31% visible
Pressure 30.09 in
Visibility 7.0 miles
Clouds Overcast 1300 ft
Dew Point 49 °F
Humidity 93%
Rainfall 0.07 in
Snow Depth Not available.
UV 0 out of 12
Pollen 7.00 out of 12
Air Quality Not available.
Flu Activity Not available.
SPECI KLIT 270113Z 14009KT 7SM -RA OVC013 12/09 A3009 RMK AO2 P0000

More Conditions Fewer Conditions

Pressure 30.09 in
Visibility 7.0 miles
Clouds Overcast 1300 ft
Dew Point 49 °F
Humidity 93%
Rainfall 0.07 in
Snow Depth Not available.
UV 0 out of 12
Pollen 7.00 out of 12
Air Quality Not available.
Flu Activity Not available.
SPECI KLIT 270113Z 14009KT 7SM -RA OVC013 12/09 A3009 RMK AO2 P0000

More Conditions Fewer Conditions

10-Day Weather Forecast

Almanac

Astronomy

Dec. 26, 2014 Rise Set
Actual Time
Civil Twilight
Nautical Twilight
Astronomical Twilight
Moon
Length of Visible Light
Length of Day
Tomorrow will be .
, % of the Moon is Illuminated

Today's Extremes

State Highs State Lows

Community

WunderPhotos

Upload Photos

1,780,804 photos uploaded!

WunderBlogs® & News

Nearby

Air Quality

  Air Quality AQ Index Pollutant
Not available.

Snow Depth

Station Depth Elevation

Earthquake Activity

City Distance Mag. Time & Date
Minimum magnitude displayed is 2.5.

Coastal Water Temperatures

Place Temperature

Nearby Weather Stations